WZZ2255 LZKZ-LKPR
Flight info
| Callsign | WZZ2255 |
|---|---|
| Flight time | 1h 5m |
| Altitude | 30000 |
| Route | TAKOS2V/19 TAKOS DCT VALPI DCT TUMKA DCT VLM |
| Aircraft | A320/M-SDE3FGHIRWY/LB1 |
Departure
| Time | 2026-05-06 18:38 |
|---|---|
| Airport | Košice International Airport (LZKZ) |
Arrival
| Time | 2026-05-06 19:43 |
|---|---|
| Airport | Václav Havel Airport Prague (LKPR) |
| Time | Latitude | Longitude | Altitude | Speed | Heading |
|---|---|---|---|---|---|
| 2026-05-06 17:28 | 48.67254 | 21.23926 | 758 ft | 0 kts | 14° |
| 2026-05-06 18:31 | 48.67262 | 21.23929 | 757 ft | 2 kts | 14° |
| 2026-05-06 18:31 | 48.67283 | 21.23937 | 757 ft | 4 kts | 15° |
| 2026-05-06 18:32 | 48.67295 | 21.23975 | 755 ft | 5 kts | 89° |
| 2026-05-06 18:32 | 48.67286 | 21.24044 | 756 ft | 8 kts | 103° |
| 2026-05-06 18:32 | 48.67272 | 21.24136 | 757 ft | 8 kts | 103° |
| 2026-05-06 18:32 | 48.67259 | 21.24216 | 755 ft | 8 kts | 103° |
| 2026-05-06 18:33 | 48.67251 | 21.24265 | 757 ft | 0 kts | 103° |
| 2026-05-06 18:35 | 48.67250 | 21.24277 | 757 ft | 5 kts | 103° |
| 2026-05-06 18:35 | 48.67238 | 21.24349 | 758 ft | 8 kts | 103° |
| 2026-05-06 18:36 | 48.67230 | 21.24422 | 754 ft | 6 kts | 114° |
| 2026-05-06 18:36 | 48.67201 | 21.24431 | 756 ft | 1 kts | 192° |
| 2026-05-06 18:37 | 48.67200 | 21.24431 | 756 ft | 0 kts | 192° |
| 2026-05-06 18:37 | 48.67182 | 21.24425 | 758 ft | 13 kts | 192° |
| 2026-05-06 18:37 | 48.66501 | 21.24187 | 756 ft | 133 kts | 193° |
| 2026-05-06 18:37 | 48.65463 | 21.23832 | 1256 ft | 159 kts | 193° |
| 2026-05-06 18:38 | 48.64354 | 21.23448 | 2169 ft | 164 kts | 195° |
| 2026-05-06 18:38 | 48.63255 | 21.23063 | 2955 ft | 160 kts | 197° |
| 2026-05-06 18:38 | 48.62181 | 21.22686 | 3691 ft | 157 kts | 197° |
| 2026-05-06 18:38 | 48.61102 | 21.22308 | 4256 ft | 167 kts | 197° |
| 2026-05-06 18:39 | 48.59898 | 21.21880 | 4590 ft | 190 kts | 197° |
| 2026-05-06 18:39 | 48.58553 | 21.21404 | 5171 ft | 202 kts | 196° |
| 2026-05-06 18:39 | 48.57174 | 21.20925 | 6044 ft | 205 kts | 196° |
| 2026-05-06 18:40 | 48.55118 | 21.18308 | 7472 ft | 222 kts | 259° |
| 2026-05-06 18:40 | 48.55174 | 21.15843 | 7925 ft | 251 kts | 277° |
| 2026-05-06 18:40 | 48.55592 | 21.13182 | 8570 ft | 267 kts | 282° |
| 2026-05-06 18:40 | 48.56123 | 21.10459 | 9501 ft | 272 kts | 283° |
| 2026-05-06 18:41 | 48.56664 | 21.07694 | 10328 ft | 281 kts | 283° |
| 2026-05-06 18:41 | 48.57121 | 21.04709 | 10675 ft | 302 kts | 273° |
| 2026-05-06 18:41 | 48.57266 | 21.01462 | 11230 ft | 316 kts | 270° |
| 2026-05-06 18:41 | 48.57353 | 20.98115 | 12028 ft | 322 kts | 270° |
| 2026-05-06 18:42 | 48.57735 | 20.94733 | 12843 ft | 332 kts | 281° |
| 2026-05-06 18:42 | 48.58286 | 20.91319 | 13686 ft | 338 kts | 281° |
| 2026-05-06 18:42 | 48.58856 | 20.87847 | 14451 ft | 343 kts | 281° |
| 2026-05-06 18:42 | 48.59435 | 20.84336 | 15275 ft | 346 kts | 281° |
| 2026-05-06 18:43 | 48.60019 | 20.80795 | 16087 ft | 349 kts | 281° |
| 2026-05-06 18:43 | 48.60602 | 20.77218 | 16908 ft | 352 kts | 281° |
| 2026-05-06 18:43 | 48.61186 | 20.73611 | 17741 ft | 355 kts | 280° |
| 2026-05-06 18:43 | 48.61771 | 20.69970 | 18517 ft | 358 kts | 280° |
| 2026-05-06 18:44 | 48.62360 | 20.66296 | 19235 ft | 362 kts | 280° |
| 2026-05-06 18:44 | 48.62955 | 20.62579 | 19977 ft | 366 kts | 281° |
| 2026-05-06 18:44 | 48.63558 | 20.58814 | 20739 ft | 371 kts | 281° |
| 2026-05-06 18:44 | 48.63959 | 20.56295 | 21225 ft | 374 kts | 281° |
| 2026-05-06 18:45 | 48.64568 | 20.52455 | 21946 ft | 378 kts | 281° |
| 2026-05-06 18:45 | 48.65186 | 20.48571 | 22664 ft | 382 kts | 281° |
| 2026-05-06 18:45 | 48.65810 | 20.44641 | 23394 ft | 386 kts | 281° |
| 2026-05-06 18:45 | 48.66441 | 20.40672 | 24038 ft | 390 kts | 281° |
| 2026-05-06 18:46 | 48.67078 | 20.36669 | 24686 ft | 393 kts | 281° |
| 2026-05-06 18:46 | 48.67716 | 20.32639 | 25340 ft | 395 kts | 281° |
| 2026-05-06 18:46 | 48.68357 | 20.28580 | 25974 ft | 398 kts | 281° |
| 2026-05-06 18:46 | 48.69000 | 20.24494 | 26618 ft | 400 kts | 281° |
| 2026-05-06 18:47 | 48.69644 | 20.20380 | 27258 ft | 403 kts | 281° |
| 2026-05-06 18:47 | 48.70289 | 20.16242 | 27903 ft | 405 kts | 281° |
| 2026-05-06 18:47 | 48.70938 | 20.12076 | 28509 ft | 408 kts | 281° |
| 2026-05-06 18:47 | 48.71590 | 20.07882 | 29046 ft | 411 kts | 281° |
| 2026-05-06 18:48 | 48.72245 | 20.03672 | 29391 ft | 412 kts | 281° |
| 2026-05-06 18:48 | 48.72904 | 19.99436 | 29817 ft | 414 kts | 281° |
| 2026-05-06 18:48 | 48.73558 | 19.95214 | 29894 ft | 406 kts | 281° |
| 2026-05-06 18:48 | 48.74190 | 19.91127 | 29895 ft | 393 kts | 280° |
| 2026-05-06 18:49 | 48.74804 | 19.87121 | 29900 ft | 388 kts | 280° |
| 2026-05-06 18:49 | 48.76013 | 19.79171 | 29894 ft | 386 kts | 280° |
| 2026-05-06 18:50 | 48.77211 | 19.71238 | 29898 ft | 386 kts | 280° |
| 2026-05-06 18:50 | 48.78410 | 19.63301 | 29897 ft | 386 kts | 280° |
| 2026-05-06 18:51 | 48.79610 | 19.55368 | 29898 ft | 386 kts | 280° |
| 2026-05-06 18:51 | 48.80796 | 19.47436 | 29900 ft | 386 kts | 279° |
| 2026-05-06 18:52 | 48.81978 | 19.39490 | 29905 ft | 386 kts | 279° |
| 2026-05-06 18:52 | 48.83160 | 19.31543 | 29902 ft | 386 kts | 279° |
| 2026-05-06 18:53 | 48.84331 | 19.23596 | 29899 ft | 386 kts | 279° |
| 2026-05-06 18:53 | 48.85501 | 19.15645 | 29899 ft | 386 kts | 279° |
| 2026-05-06 18:54 | 48.86666 | 19.07698 | 29899 ft | 386 kts | 279° |
| 2026-05-06 18:54 | 48.87822 | 18.99750 | 29897 ft | 385 kts | 279° |
| 2026-05-06 18:55 | 48.88962 | 18.91808 | 29892 ft | 385 kts | 279° |
| 2026-05-06 18:55 | 48.90099 | 18.83871 | 29889 ft | 384 kts | 279° |
| 2026-05-06 18:56 | 48.91244 | 18.75942 | 29875 ft | 384 kts | 279° |
| 2026-05-06 18:56 | 48.92377 | 18.68011 | 29873 ft | 384 kts | 279° |
| 2026-05-06 18:57 | 48.93499 | 18.60082 | 29867 ft | 383 kts | 278° |
| 2026-05-06 18:57 | 48.94611 | 18.52156 | 29862 ft | 383 kts | 278° |
| 2026-05-06 18:58 | 48.95714 | 18.44231 | 29859 ft | 383 kts | 278° |
| 2026-05-06 18:58 | 48.96819 | 18.36305 | 29857 ft | 383 kts | 278° |
| 2026-05-06 18:59 | 48.97911 | 18.28386 | 29849 ft | 382 kts | 278° |
| 2026-05-06 18:59 | 48.98996 | 18.20478 | 29851 ft | 382 kts | 278° |
| 2026-05-06 19:00 | 49.00084 | 18.12572 | 29841 ft | 382 kts | 278° |
| 2026-05-06 19:00 | 49.01163 | 18.04657 | 29833 ft | 381 kts | 277° |
| 2026-05-06 19:01 | 49.02229 | 17.96742 | 29833 ft | 381 kts | 277° |
| 2026-05-06 19:01 | 49.03680 | 17.88940 | 29818 ft | 383 kts | 282° |
| 2026-05-06 19:02 | 49.05247 | 17.81167 | 29822 ft | 384 kts | 282° |
| 2026-05-06 19:02 | 49.06813 | 17.73343 | 29814 ft | 383 kts | 282° |
| 2026-05-06 19:03 | 49.08363 | 17.65568 | 29811 ft | 383 kts | 282° |
| 2026-05-06 19:03 | 49.09907 | 17.57792 | 29803 ft | 383 kts | 282° |
| 2026-05-06 19:04 | 49.11438 | 17.50027 | 29790 ft | 377 kts | 282° |
| 2026-05-06 19:04 | 49.12919 | 17.42511 | 29777 ft | 367 kts | 281° |
| 2026-05-06 19:05 | 49.14344 | 17.35226 | 29775 ft | 353 kts | 281° |
| 2026-05-06 19:05 | 49.15732 | 17.28107 | 29772 ft | 348 kts | 281° |
| 2026-05-06 19:06 | 49.17110 | 17.21016 | 29770 ft | 348 kts | 281° |
| 2026-05-06 19:06 | 49.18480 | 17.13928 | 29771 ft | 348 kts | 281° |
| 2026-05-06 19:07 | 49.19845 | 17.06835 | 29763 ft | 348 kts | 281° |
| 2026-05-06 19:07 | 49.21205 | 16.99740 | 29773 ft | 348 kts | 281° |
| 2026-05-06 19:08 | 49.22569 | 16.92633 | 29775 ft | 348 kts | 281° |
| 2026-05-06 19:08 | 49.23929 | 16.85515 | 29777 ft | 349 kts | 280° |
| 2026-05-06 19:09 | 49.25282 | 16.78384 | 29782 ft | 349 kts | 280° |
| 2026-05-06 19:09 | 49.26633 | 16.71249 | 29782 ft | 349 kts | 280° |
| 2026-05-06 19:10 | 49.27975 | 16.64108 | 29777 ft | 349 kts | 280° |
| 2026-05-06 19:10 | 49.28645 | 16.60544 | 29637 ft | 348 kts | 280° |
| 2026-05-06 19:10 | 49.29314 | 16.56988 | 29505 ft | 347 kts | 280° |
| 2026-05-06 19:10 | 49.29979 | 16.53442 | 29286 ft | 346 kts | 280° |
| 2026-05-06 19:11 | 49.30643 | 16.49902 | 29063 ft | 345 kts | 280° |
| 2026-05-06 19:11 | 49.31302 | 16.46376 | 28822 ft | 344 kts | 280° |
| 2026-05-06 19:11 | 49.31958 | 16.42858 | 28545 ft | 343 kts | 279° |
| 2026-05-06 19:11 | 49.32608 | 16.39354 | 28272 ft | 341 kts | 279° |
| 2026-05-06 19:12 | 49.33252 | 16.35859 | 28007 ft | 340 kts | 279° |
| 2026-05-06 19:12 | 49.33894 | 16.32373 | 27738 ft | 339 kts | 279° |
| 2026-05-06 19:12 | 49.34535 | 16.28900 | 27473 ft | 338 kts | 279° |
| 2026-05-06 19:12 | 49.35175 | 16.25439 | 27211 ft | 337 kts | 279° |
| 2026-05-06 19:13 | 49.35814 | 16.21985 | 26953 ft | 336 kts | 279° |
| 2026-05-06 19:13 | 49.36449 | 16.18543 | 26698 ft | 335 kts | 279° |
| 2026-05-06 19:13 | 49.37090 | 16.15063 | 26435 ft | 334 kts | 279° |
| 2026-05-06 19:13 | 49.37717 | 16.11634 | 26183 ft | 333 kts | 279° |
| 2026-05-06 19:14 | 49.38340 | 16.08218 | 25933 ft | 332 kts | 279° |
| 2026-05-06 19:14 | 49.38961 | 16.04807 | 25686 ft | 331 kts | 279° |
| 2026-05-06 19:14 | 49.39580 | 16.01405 | 25439 ft | 330 kts | 279° |
| 2026-05-06 19:14 | 49.40196 | 15.98010 | 25195 ft | 330 kts | 279° |
| 2026-05-06 19:15 | 49.40906 | 15.94650 | 24950 ft | 333 kts | 285° |
| 2026-05-06 19:15 | 49.41917 | 15.91426 | 24713 ft | 337 kts | 291° |
| 2026-05-06 19:15 | 49.43014 | 15.88251 | 24474 ft | 336 kts | 291° |
| 2026-05-06 19:15 | 49.44102 | 15.85080 | 24233 ft | 335 kts | 290° |
| 2026-05-06 19:16 | 49.45183 | 15.81912 | 23990 ft | 334 kts | 290° |
| 2026-05-06 19:16 | 49.46255 | 15.78749 | 23774 ft | 333 kts | 290° |
| 2026-05-06 19:16 | 49.47324 | 15.75587 | 23544 ft | 333 kts | 290° |
| 2026-05-06 19:16 | 49.48390 | 15.72433 | 23269 ft | 333 kts | 290° |
| 2026-05-06 19:17 | 49.49456 | 15.69284 | 22856 ft | 331 kts | 290° |
| 2026-05-06 19:17 | 49.50521 | 15.66150 | 22451 ft | 330 kts | 290° |
| 2026-05-06 19:17 | 49.51582 | 15.63033 | 22099 ft | 327 kts | 290° |
| 2026-05-06 19:17 | 49.52633 | 15.59939 | 21839 ft | 326 kts | 290° |
| 2026-05-06 19:18 | 49.53677 | 15.56853 | 21579 ft | 325 kts | 290° |
| 2026-05-06 19:18 | 49.54714 | 15.53771 | 21316 ft | 323 kts | 290° |
| 2026-05-06 19:18 | 49.55745 | 15.50701 | 21063 ft | 322 kts | 290° |
| 2026-05-06 19:18 | 49.56772 | 15.47643 | 20811 ft | 321 kts | 290° |
| 2026-05-06 19:19 | 49.57797 | 15.44596 | 20562 ft | 320 kts | 290° |
| 2026-05-06 19:19 | 49.58816 | 15.41559 | 20310 ft | 319 kts | 290° |
| 2026-05-06 19:19 | 49.59829 | 15.38530 | 20059 ft | 317 kts | 290° |
| 2026-05-06 19:19 | 49.60837 | 15.35514 | 19816 ft | 316 kts | 290° |
| 2026-05-06 19:20 | 49.61842 | 15.32510 | 19573 ft | 315 kts | 291° |
| 2026-05-06 19:20 | 49.62843 | 15.29517 | 19331 ft | 313 kts | 291° |
| 2026-05-06 19:20 | 49.63839 | 15.26534 | 19092 ft | 312 kts | 291° |
| 2026-05-06 19:20 | 49.64829 | 15.23564 | 18858 ft | 311 kts | 291° |
| 2026-05-06 19:21 | 49.65814 | 15.20606 | 18620 ft | 309 kts | 291° |
| 2026-05-06 19:21 | 49.66793 | 15.17658 | 18387 ft | 308 kts | 291° |
| 2026-05-06 19:21 | 49.67764 | 15.14721 | 18157 ft | 307 kts | 291° |
| 2026-05-06 19:21 | 49.68733 | 15.11794 | 17904 ft | 305 kts | 291° |
| 2026-05-06 19:22 | 49.69707 | 15.08885 | 17633 ft | 305 kts | 294° |
| 2026-05-06 19:22 | 49.70938 | 15.06184 | 17364 ft | 311 kts | 306° |
| 2026-05-06 19:22 | 49.72522 | 15.03877 | 17102 ft | 315 kts | 314° |
| 2026-05-06 19:22 | 49.74185 | 15.01692 | 16844 ft | 313 kts | 314° |
| 2026-05-06 19:23 | 49.75840 | 14.99508 | 16583 ft | 312 kts | 314° |
| 2026-05-06 19:23 | 49.77487 | 14.97329 | 16322 ft | 311 kts | 314° |
| 2026-05-06 19:23 | 49.78573 | 14.95892 | 16152 ft | 310 kts | 314° |
| 2026-05-06 19:23 | 49.80207 | 14.93725 | 15894 ft | 309 kts | 314° |
| 2026-05-06 19:24 | 49.81833 | 14.91565 | 15649 ft | 307 kts | 314° |
| 2026-05-06 19:24 | 49.83451 | 14.89413 | 15391 ft | 306 kts | 314° |
| 2026-05-06 19:24 | 49.85062 | 14.87271 | 15142 ft | 305 kts | 314° |
| 2026-05-06 19:24 | 49.86666 | 14.85132 | 14904 ft | 303 kts | 314° |
| 2026-05-06 19:25 | 49.88261 | 14.82999 | 14662 ft | 302 kts | 314° |
| 2026-05-06 19:25 | 49.89848 | 14.80875 | 14422 ft | 301 kts | 314° |
| 2026-05-06 19:25 | 49.91432 | 14.78754 | 14179 ft | 300 kts | 314° |
| 2026-05-06 19:25 | 49.93008 | 14.76641 | 13947 ft | 299 kts | 315° |
| 2026-05-06 19:26 | 49.94579 | 14.74535 | 13715 ft | 298 kts | 315° |
| 2026-05-06 19:26 | 49.96143 | 14.72435 | 13469 ft | 297 kts | 315° |
| 2026-05-06 19:26 | 49.97701 | 14.70343 | 13235 ft | 295 kts | 315° |
| 2026-05-06 19:26 | 49.99253 | 14.68256 | 13135 ft | 295 kts | 315° |
| 2026-05-06 19:27 | 50.00794 | 14.66172 | 13033 ft | 294 kts | 313° |
| 2026-05-06 19:27 | 50.02098 | 14.63919 | 12924 ft | 290 kts | 303° |
| 2026-05-06 19:27 | 50.03318 | 14.61422 | 12792 ft | 290 kts | 303° |
| 2026-05-06 19:27 | 50.04533 | 14.58932 | 12580 ft | 288 kts | 303° |
| 2026-05-06 19:28 | 50.05746 | 14.56457 | 12263 ft | 287 kts | 303° |
| 2026-05-06 19:28 | 50.06955 | 14.54006 | 11932 ft | 282 kts | 303° |
| 2026-05-06 19:28 | 50.08134 | 14.51626 | 11663 ft | 273 kts | 303° |
| 2026-05-06 19:28 | 50.09277 | 14.49331 | 11405 ft | 264 kts | 303° |
| 2026-05-06 19:29 | 50.10017 | 14.47849 | 11243 ft | 261 kts | 303° |
| 2026-05-06 19:29 | 50.12785 | 14.42304 | 10626 ft | 256 kts | 303° |
| 2026-05-06 19:29 | 50.13875 | 14.40122 | 10381 ft | 255 kts | 303° |
| 2026-05-06 19:30 | 50.14962 | 14.37950 | 10141 ft | 253 kts | 303° |
| 2026-05-06 19:30 | 50.16043 | 14.35788 | 9899 ft | 252 kts | 303° |
| 2026-05-06 19:30 | 50.17118 | 14.33639 | 9657 ft | 251 kts | 303° |
| 2026-05-06 19:30 | 50.18190 | 14.31495 | 9394 ft | 250 kts | 303° |
| 2026-05-06 19:31 | 50.19255 | 14.29360 | 9170 ft | 249 kts | 303° |
| 2026-05-06 19:31 | 50.20319 | 14.27222 | 8937 ft | 250 kts | 303° |
| 2026-05-06 19:31 | 50.22432 | 14.22945 | 8374 ft | 247 kts | 303° |
| 2026-05-06 19:32 | 50.23463 | 14.20838 | 8131 ft | 241 kts | 303° |
| 2026-05-06 19:32 | 50.24466 | 14.18781 | 7831 ft | 235 kts | 303° |
| 2026-05-06 19:32 | 50.25442 | 14.16774 | 7568 ft | 229 kts | 303° |
| 2026-05-06 19:32 | 50.26399 | 14.14802 | 7319 ft | 227 kts | 303° |
| 2026-05-06 19:33 | 50.27345 | 14.12844 | 7070 ft | 225 kts | 303° |
| 2026-05-06 19:33 | 50.28275 | 14.10921 | 6929 ft | 218 kts | 303° |
| 2026-05-06 19:33 | 50.29183 | 14.09036 | 6836 ft | 216 kts | 303° |
| 2026-05-06 19:33 | 50.30084 | 14.07159 | 6770 ft | 215 kts | 303° |
| 2026-05-06 19:34 | 50.30983 | 14.05279 | 6782 ft | 216 kts | 303° |
| 2026-05-06 19:34 | 50.31886 | 14.03379 | 6576 ft | 217 kts | 303° |
| 2026-05-06 19:34 | 50.32780 | 14.01489 | 6333 ft | 215 kts | 303° |
| 2026-05-06 19:34 | 50.33665 | 13.99609 | 6113 ft | 214 kts | 303° |
| 2026-05-06 19:35 | 50.34541 | 13.97730 | 5913 ft | 213 kts | 301° |
| 2026-05-06 19:35 | 50.35048 | 13.95623 | 5704 ft | 207 kts | 269° |
| 2026-05-06 19:35 | 50.34666 | 13.93521 | 5574 ft | 203 kts | 233° |
| 2026-05-06 19:35 | 50.33641 | 13.91999 | 5446 ft | 204 kts | 217° |
| 2026-05-06 19:36 | 50.32344 | 13.91155 | 5320 ft | 206 kts | 184° |
| 2026-05-06 19:36 | 50.30943 | 13.91601 | 5191 ft | 210 kts | 159° |
| 2026-05-06 19:36 | 50.29613 | 13.92554 | 5066 ft | 211 kts | 156° |
| 2026-05-06 19:36 | 50.28302 | 13.93576 | 4865 ft | 210 kts | 155° |
| 2026-05-06 19:37 | 50.26992 | 13.94603 | 4694 ft | 211 kts | 154° |
| 2026-05-06 19:37 | 50.25680 | 13.95623 | 4523 ft | 211 kts | 155° |
| 2026-05-06 19:37 | 50.24373 | 13.96672 | 4393 ft | 212 kts | 147° |
| 2026-05-06 19:37 | 50.23661 | 13.97710 | 4311 ft | 213 kts | 129° |
| 2026-05-06 19:38 | 50.22478 | 14.00191 | 4171 ft | 213 kts | 127° |
| 2026-05-06 19:38 | 50.21600 | 14.02046 | 4078 ft | 209 kts | 127° |
| 2026-05-06 19:38 | 50.20761 | 14.03805 | 4004 ft | 195 kts | 127° |
| 2026-05-06 19:38 | 50.19981 | 14.05434 | 3988 ft | 182 kts | 127° |
| 2026-05-06 19:39 | 50.19235 | 14.06990 | 3881 ft | 177 kts | 127° |
| 2026-05-06 19:39 | 50.18505 | 14.08513 | 3694 ft | 174 kts | 127° |
| 2026-05-06 19:39 | 50.17783 | 14.10020 | 3477 ft | 173 kts | 126° |
| 2026-05-06 19:39 | 50.17065 | 14.11515 | 3252 ft | 172 kts | 126° |
| 2026-05-06 19:40 | 50.16349 | 14.13005 | 3034 ft | 171 kts | 126° |
| 2026-05-06 19:40 | 50.15643 | 14.14476 | 2802 ft | 165 kts | 126° |
| 2026-05-06 19:40 | 50.14979 | 14.15855 | 2577 ft | 153 kts | 125° |
| 2026-05-06 19:40 | 50.14357 | 14.17147 | 2390 ft | 146 kts | 124° |
| 2026-05-06 19:41 | 50.13756 | 14.18397 | 2198 ft | 143 kts | 124° |
| 2026-05-06 19:41 | 50.13165 | 14.19626 | 2008 ft | 141 kts | 125° |
| 2026-05-06 19:41 | 50.12579 | 14.20843 | 1810 ft | 140 kts | 125° |
| 2026-05-06 19:41 | 50.12194 | 14.21641 | 1682 ft | 138 kts | 124° |
| 2026-05-06 19:42 | 50.11432 | 14.23223 | 1429 ft | 138 kts | 125° |
| 2026-05-06 19:42 | 50.10865 | 14.24409 | 1221 ft | 136 kts | 125° |
| 2026-05-06 19:42 | 50.10339 | 14.25490 | 1182 ft | 96 kts | 128° |
| 2026-05-06 19:42 | 50.10062 | 14.26065 | 1193 ft | 52 kts | 127° |
| 2026-05-06 19:43 | 50.09925 | 14.26350 | 1204 ft | 45 kts | 126° |
| 2026-05-06 19:43 | 50.09876 | 14.26640 | 1213 ft | 26 kts | 82° |
| 2026-05-06 19:43 | 50.09900 | 14.26900 | 1210 ft | 21 kts | 82° |
| 2026-05-06 19:43 | 50.09916 | 14.27073 | 1207 ft | 8 kts | 82° |
| 2026-05-06 19:44 | 50.09917 | 14.27080 | 1207 ft | 0 kts | 82° |
| 2026-05-06 19:44 | 50.09919 | 14.27107 | 1207 ft | 5 kts | 82° |
| 2026-05-06 19:44 | 50.09950 | 14.27115 | 1206 ft | 7 kts | 322° |
| 2026-05-06 19:45 | 50.09992 | 14.27029 | 1205 ft | 14 kts | 306° |
| 2026-05-06 19:45 | 50.10060 | 14.26887 | 1202 ft | 19 kts | 308° |
| 2026-05-06 19:45 | 50.10141 | 14.26720 | 1198 ft | 20 kts | 306° |
| 2026-05-06 19:45 | 50.10211 | 14.26575 | 1196 ft | 14 kts | 308° |
| 2026-05-06 19:46 | 50.10279 | 14.26437 | 1193 ft | 18 kts | 306° |
| 2026-05-06 19:46 | 50.10349 | 14.26290 | 1190 ft | 16 kts | 307° |
| 2026-05-06 19:46 | 50.10405 | 14.26174 | 1188 ft | 11 kts | 307° |
| 2026-05-06 19:46 | 50.10451 | 14.26079 | 1186 ft | 12 kts | 307° |
| 2026-05-06 19:47 | 50.10503 | 14.25971 | 1184 ft | 12 kts | 307° |
| 2026-05-06 19:47 | 50.10553 | 14.25858 | 1183 ft | 11 kts | 304° |
| 2026-05-06 19:47 | 50.10596 | 14.25795 | 1182 ft | 9 kts | 352° |
| 2026-05-06 19:47 | 50.10667 | 14.25856 | 1175 ft | 15 kts | 35° |
| 2026-05-06 19:48 | 50.10739 | 14.25932 | 1176 ft | 11 kts | 34° |
| 2026-05-06 19:48 | 50.10779 | 14.25979 | 1174 ft | 4 kts | 53° |
| 2026-05-06 19:48 | 50.10772 | 14.26024 | 1176 ft | 5 kts | 119° |
| 2026-05-06 19:48 | 50.10753 | 14.26068 | 1177 ft | 1 kts | 124° |
| 2026-05-06 19:49 | 50.10749 | 14.26075 | 1176 ft | 0 kts | 124° |